Time;durP1;ratioP1;P1;durP2;ratioP2;P2;SDS_P1;SDS_P2;PMS_P1;PMS_P2;Temp;Humidity;BMP_temperature;BMP_pressure;BME280_temperature;BME280_humidity;BME280_pressure;Samples;Min_cycle;Max_cycle;Signal;HPM_P1;HPM_P2
2021/12/08 00:00:55;;;;;;;;;;;;;;;-18.73;52.92;98808.53;6399922;27;20307;-62
2021/12/08 00:03:56;;;;;;;;;;;;;;;-18.75;53.07;98810.06;6398575;27;20337;-63
2021/12/08 00:06:57;;;;;;;;;;;;;;;-18.78;53.03;98814.84;6398628;27;19983;-63
2021/12/08 00:13:25;;;;;;;;;;;;;;;-18.82;53.20;98822.84;6399535;27;19923;-64
2021/12/08 00:16:29;;;;;;;;;;;;;;;-18.76;53.14;98823.38;6398457;27;20272;-63
2021/12/08 00:19:32;;;;;;;;;;;;;;;-18.72;53.07;98820.31;6398653;27;19923;-63
2021/12/08 00:22:36;;;;;;;;;;;;;;;-18.65;52.81;98819.16;6399388;27;19923;-62
2021/12/08 00:25:37;;;;;;;;;;;;;;;-18.64;52.80;98809.25;6398085;27;19929;-64
2021/12/08 00:28:40;;;;;;;;;;;;;;;-18.58;53.01;98811.38;6399243;27;19923;-63
2021/12/08 00:31:46;;;;;;;;;;;;;;;-18.52;52.80;98808.47;6399095;27;19930;-63
2021/12/08 00:34:50;;;;;;;;;;;;;;;-18.42;52.81;98808.44;6399036;27;20380;-63
2021/12/08 00:37:51;;;;;;;;;;;;;;;-18.30;52.14;98809.38;6398874;27;19923;-63
2021/12/08 00:40:52;;;;;;;;;;;;;;;-18.10;52.08;98810.03;6398531;27;20010;-63
2021/12/08 00:43:56;;;;;;;;;;;;;;;-17.88;51.82;98817.59;6398609;27;19923;-62
2021/12/08 00:46:57;;;;;;;;;;;;;;;-17.68;51.89;98823.34;6397759;27;19923;-62
2021/12/08 00:50:00;;;;;;;;;;;;;;;-17.49;51.58;98837.28;6398694;27;19935;-63
2021/12/08 00:53:02;;;;;;;;;;;;;;;-17.36;51.23;98822.38;6397447;27;20441;-62
2021/12/08 00:56:03;;;;;;;;;;;;;;;-17.23;51.56;98825.03;6397303;27;19930;-63
2021/12/08 00:59:09;;;;;;;;;;;;;;;-17.13;51.32;98825.72;6397299;27;19923;-62
2021/12/08 01:02:13;;;;;;;;;;;;;;;-17.08;50.96;98829.44;6398286;27;19923;-63
2021/12/08 01:05:18;;;;;;;;;;;;;;;-17.09;51.29;98831.09;6398389;27;19923;-63
2021/12/08 01:08:20;;;;;;;;;;;;;;;-17.08;51.53;98849.59;6397118;27;19923;-63
2021/12/08 01:11:21;;;;;;;;;;;;;;;-17.10;51.75;98836.00;6397226;27;19923;-63
2021/12/08 01:14:22;;;;;;;;;;;;;;;-17.14;52.00;98832.38;6397227;27;20440;-63
2021/12/08 01:17:25;;;;;;;;;;;;;;;-17.25;51.88;98833.22;6397983;27;19937;-63
2021/12/08 01:20:29;;;;;;;;;;;;;;;-17.37;52.54;98830.69;6397728;27;19922;-63
2021/12/08 01:23:32;;;;;;;;;;;;;;;-17.50;52.33;98848.13;6396826;27;19923;-63
2021/12/08 01:26:33;;;;;;;;;;;;;;;-17.64;52.89;98844.56;6396528;27;20347;-62
2021/12/08 01:29:35;;;;;;;;;;;;;;;-17.74;53.31;98840.50;6396656;27;19933;-62
2021/12/08 01:32:36;;;;;;;;;;;;;;;-17.80;55.00;98852.63;6396739;27;19923;-63
2021/12/08 01:35:39;;;;;;;;;;;;;;;-17.82;55.03;98848.25;6396842;27;19930;-63
2021/12/08 01:38:40;;;;;;;;;;;;;;;-17.82;54.62;98834.03;6397671;27;19930;-63
2021/12/08 01:41:41;;;;;;;;;;;;;;;-17.82;54.10;98831.50;6397537;27;19930;-62
2021/12/08 01:48:08;;;;;;;;;;;;;;;-17.85;53.63;98823.75;6397402;27;19923;-63
2021/12/08 01:51:14;;;;;;;;;;;;;;;-17.84;53.95;98825.47;6396435;27;20315;-64
2021/12/08 01:54:15;;;;;;;;;;;;;;;-17.82;54.08;98823.97;6397229;27;20079;-63
2021/12/08 01:57:16;;;;;;;;;;;;;;;-17.81;54.09;98815.66;6397112;27;20014;-63
2021/12/08 02:00:26;;;;;;;;;;;;;;;-17.83;53.94;98816.28;6397152;27;19923;-63
2021/12/08 02:03:28;;;;;;;;;;;;;;;-17.86;54.06;98816.06;6395426;27;20388;-65
2021/12/08 02:06:29;;;;;;;;;;;;;;;-17.87;54.60;98810.16;6396461;27;19922;-63
2021/12/08 02:09:30;;;;;;;;;;;;;;;-17.89;55.98;98829.28;6396979;27;19923;-63
2021/12/08 02:12:35;;;;;;;;;;;;;;;-17.88;54.66;98827.66;6396734;27;19929;-63
2021/12/08 02:15:37;;;;;;;;;;;;;;;-17.93;54.33;98830.69;6395982;27;19930;-63
2021/12/08 02:18:41;;;;;;;;;;;;;;;-18.00;54.33;98832.59;6396867;27;19923;-63
2021/12/08 02:21:51;;;;;;;;;;;;;;;-18.03;54.40;98842.41;6396715;27;19931;-63
2021/12/08 02:24:52;;;;;;;;;;;;;;;-18.08;53.85;98848.72;6396869;27;19923;-63
2021/12/08 02:27:55;;;;;;;;;;;;;;;-18.15;54.16;98863.31;6396018;27;19923;-64
2021/12/08 02:31:02;;;;;;;;;;;;;;;-18.19;54.74;98856.31;6397024;27;19923;-63
2021/12/08 02:47:54;;;;;;;;;;;;;;;-18.32;54.27;98838.50;6400150;27;20429;-62
2021/12/08 02:50:56;;;;;;;;;;;;;;;-18.33;54.88;98831.75;6400246;27;20422;-61
2021/12/08 02:53:59;;;;;;;;;;;;;;;-18.30;54.45;98828.59;6401444;27;19927;-62
2021/12/08 02:57:03;;;;;;;;;;;;;;;-18.28;54.51;98835.50;6401069;27;19923;-62
2021/12/08 03:00:06;;;;;;;;;;;;;;;-18.25;54.39;98848.31;6401073;27;19930;-63
2021/12/08 03:03:10;;;;;;;;;;;;;;;-18.26;53.74;98846.53;6400935;27;19929;-64
2021/12/08 03:06:15;;;;;;;;;;;;;;;-18.31;54.42;98852.84;6400865;27;20318;-65
2021/12/08 03:09:16;;;;;;;;;;;;;;;-18.38;53.92;98861.53;6400831;27;19923;-63
2021/12/08 03:12:26;;;;;;;;;;;;;;;-18.39;54.23;98874.84;6400108;27;19929;-63
2021/12/08 03:15:27;;;;;;;;;;;;;;;-18.50;54.31;98887.31;6399555;27;19929;-64
2021/12/08 03:18:34;;;;;;;;;;;;;;;-18.61;54.43;98887.31;6400495;27;19923;-63
2021/12/08 03:21:35;;;;;;;;;;;;;;;-18.67;53.97;98885.97;6400757;27;19923;-64
2021/12/08 03:24:44;;;;;;;;;;;;;;;-18.77;54.45;98886.00;6400036;27;20299;-63
2021/12/08 03:28:02;;;;;;;;;;;;;;;-18.85;54.49;98893.78;6400467;27;20304;-63
2021/12/08 03:31:15;;;;;;;;;;;;;;;-18.93;54.24;98886.41;6400279;27;20391;-64
2021/12/08 03:34:19;;;;;;;;;;;;;;;-18.94;54.27;98892.16;6399239;27;19923;-62
2021/12/08 03:37:23;;;;;;;;;;;;;;;-18.94;54.73;98883.00;6399415;27;19930;-63
2021/12/08 03:40:25;;;;;;;;;;;;;;;-18.92;54.20;98880.63;6400085;27;19930;-62
2021/12/08 03:43:27;;;;;;;;;;;;;;;-18.90;54.19;98876.59;6380665;27;19923;-64
2021/12/08 03:46:31;;;;;;;;;;;;;;;-18.89;54.26;98875.84;6399869;27;20084;-63
2021/12/08 03:49:34;;;;;;;;;;;;;;;-18.81;54.73;98877.34;6399737;27;19927;-63
2021/12/08 03:52:38;;;;;;;;;;;;;;;-18.77;54.24;98891.00;6399783;27;19923;-62
2021/12/08 03:55:40;;;;;;;;;;;;;;;-18.80;54.54;98884.09;6398975;27;19923;-63
2021/12/08 03:58:41;;;;;;;;;;;;;;;-18.80;54.44;98886.63;6399313;27;19964;-63
2021/12/08 04:01:42;;;;;;;;;;;;;;;-18.85;53.98;98887.88;6398652;27;19972;-63
2021/12/08 04:04:49;;;;;;;;;;;;;;;-18.96;54.53;98873.56;6399648;27;19923;-62
2021/12/08 04:07:52;;;;;;;;;;;;;;;-18.98;54.27;98875.09;6398594;27;19930;-62
2021/12/08 04:10:53;;;;;;;;;;;;;;;-18.99;54.59;98883.38;6399350;27;19923;-63
2021/12/08 04:14:03;;;;;;;;;;;;;;;-19.00;53.91;98887.50;6399347;27;19923;-63
2021/12/08 04:17:13;;;;;;;;;;;;;;;-18.98;54.14;98895.19;6399254;27;20312;-63
2021/12/08 04:20:20;;;;;;;;;;;;;;;-19.02;53.78;98894.03;6398840;27;19923;-63
2021/12/08 04:23:27;;;;;;;;;;;;;;;-19.05;54.17;98899.69;6379795;27;19923;-63
2021/12/08 04:26:34;;;;;;;;;;;;;;;-19.05;53.84;98909.75;6399015;27;19923;-62
2021/12/08 04:29:37;;;;;;;;;;;;;;;-19.03;54.36;98918.25;6398709;27;19923;-62
2021/12/08 04:32:38;;;;;;;;;;;;;;;-19.09;53.47;98925.28;6398084;27;19930;-62
2021/12/08 04:35:40;;;;;;;;;;;;;;;-19.12;53.53;98922.50;6398800;27;19923;-63
2021/12/08 04:38:45;;;;;;;;;;;;;;;-19.07;53.67;98930.44;6398660;27;19926;-63
2021/12/08 04:41:55;;;;;;;;;;;;;;;-19.03;53.43;98928.28;6397186;27;19924;-63
2021/12/08 04:45:04;;;;;;;;;;;;;;;-19.00;53.48;98930.16;6397707;27;19923;-63
2021/12/08 04:51:28;;;;;;;;;;;;;;;-18.81;53.10;98951.00;6397373;27;20296;-62
2021/12/08 05:07:58;;;;;;;;;;;;;;;-18.29;52.78;98954.31;6398372;27;19923;-63
2021/12/08 05:11:01;;;;;;;;;;;;;;;-18.05;52.18;98959.56;6398225;27;19922;-63
2021/12/08 05:14:11;;;;;;;;;;;;;;;-17.95;52.03;98959.50;6396955;27;19923;-63
2021/12/08 05:17:17;;;;;;;;;;;;;;;-17.84;51.99;98951.19;6396893;27;19919;-63
2021/12/08 05:20:18;;;;;;;;;;;;;;;-17.67;51.63;98948.31;6397700;27;19929;-63
2021/12/08 05:23:30;;;;;;;;;;;;;;;-17.42;51.30;98949.34;6378882;27;20456;-63
2021/12/08 05:26:35;;;;;;;;;;;;;;;-17.22;51.08;98947.56;6397896;27;20395;-63
2021/12/08 05:29:45;;;;;;;;;;;;;;;-17.05;50.83;98950.50;6397450;27;19923;-63
2021/12/08 05:32:49;;;;;;;;;;;;;;;-16.96;50.63;98940.25;6396546;27;20007;-64
2021/12/08 05:35:51;;;;;;;;;;;;;;;-16.79;50.69;98935.69;6396587;27;19922;-63
2021/12/08 05:38:53;;;;;;;;;;;;;;;-16.53;50.58;98949.31;6397510;27;19926;-63
2021/12/08 05:42:03;;;;;;;;;;;;;;;-16.31;50.26;98939.16;6396710;27;19929;-64
2021/12/08 05:45:09;;;;;;;;;;;;;;;-16.07;50.18;98948.50;6397125;27;20292;-63
2021/12/08 05:48:12;;;;;;;;;;;;;;;-15.78;49.85;98946.28;6397135;27;20415;-63
2021/12/08 05:51:17;;;;;;;;;;;;;;;-15.55;49.52;98935.25;6396343;27;19923;-64
2021/12/08 05:54:23;;;;;;;;;;;;;;;-15.30;49.33;98935.31;6397257;27;19919;-64
2021/12/08 05:57:32;;;;;;;;;;;;;;;-15.03;49.02;98929.63;6397113;27;19922;-64
2021/12/08 06:00:37;;;;;;;;;;;;;;;-14.56;48.71;98944.53;6395958;27;19930;-63
2021/12/08 06:03:39;;;;;;;;;;;;;;;-13.85;47.98;98949.09;6396537;27;20322;-64
2021/12/08 06:06:41;;;;;;;;;;;;;;;-13.15;47.38;98942.44;6397157;27;19919;-64
2021/12/08 06:09:42;;;;;;;;;;;;;;;-12.89;46.21;98932.19;6395836;27;20307;-64
2021/12/08 06:12:47;;;;;;;;;;;;;;;-12.83;46.75;98935.91;6396164;27;19927;-63
2021/12/08 06:15:49;;;;;;;;;;;;;;;-12.80;46.79;98942.00;6395873;27;19918;-64
2021/12/08 06:18:53;;;;;;;;;;;;;;;-12.75;46.85;98943.16;6398873;27;19923;-64
2021/12/08 06:21:54;;;;;;;;;;;;;;;-12.72;47.10;98945.88;6400502;27;19927;-62
2021/12/08 06:24:55;;;;;;;;;;;;;;;-12.53;47.15;98947.84;6401757;27;19923;-62
2021/12/08 06:27:59;;;;;;;;;;;;;;;-12.10;46.95;98957.94;6401827;27;19923;-63
2021/12/08 06:31:01;;;;;;;;;;;;;;;-11.71;46.49;98950.78;6401079;27;19930;-63
2021/12/08 06:34:04;;;;;;;;;;;;;;;-11.39;46.37;98944.94;6382994;27;20348;-63
2021/12/08 06:37:13;;;;;;;;;;;;;;;-11.12;46.07;98954.84;6401634;27;19927;-63
2021/12/08 06:40:14;;;;;;;;;;;;;;;-11.05;46.37;98956.91;6400731;27;19930;-63
2021/12/08 06:43:19;;;;;;;;;;;;;;;-11.00;46.30;98950.41;6401563;27;20281;-63
2021/12/08 06:46:25;;;;;;;;;;;;;;;-10.97;46.36;98945.47;6401644;27;19923;-63
2021/12/08 06:49:29;;;;;;;;;;;;;;;-10.96;46.77;98931.97;6401268;27;19923;-63
2021/12/08 06:52:33;;;;;;;;;;;;;;;-10.73;46.25;98929.75;6401700;27;19962;-64
2021/12/08 06:55:44;;;;;;;;;;;;;;;-10.72;46.08;98922.19;6401234;27;19923;-63
2021/12/08 06:58:48;;;;;;;;;;;;;;;-10.70;46.14;98922.25;6400838;27;19934;-63
2021/12/08 07:02:08;;;;;;;;;;;;;;;-10.67;46.45;98930.03;6401020;27;19923;-64
2021/12/08 07:05:25;;;;;;;;;;;;;;;-10.52;46.56;98919.81;6399888;27;19923;-64
2021/12/08 07:08:26;;;;;;;;;;;;;;;-10.27;46.40;98925.31;6399994;27;19930;-64
2021/12/08 07:11:27;;;;;;;;;;;;;;;-9.95;46.15;98926.00;6400828;27;19930;-64
2021/12/08 07:14:30;;;;;;;;;;;;;;;-8.30;44.30;98927.47;6399702;27;19930;-62
2021/12/08 07:17:33;;;;;;;;;;;;;;;-6.19;40.78;98928.72;6399808;27;19923;-63
2021/12/08 07:20:46;;;;;;;;;;;;;;;-4.66;38.30;98910.34;6400116;27;20376;-64
2021/12/08 07:23:52;;;;;;;;;;;;;;;-3.54;36.81;98908.06;6399319;27;19922;-63
2021/12/08 07:26:55;;;;;;;;;;;;;;;-2.37;36.15;98916.63;6398722;27;20315;-63
2021/12/08 07:29:58;;;;;;;;;;;;;;;-1.16;35.10;98915.19;6398884;27;20078;-64
2021/12/08 07:33:02;;;;;;;;;;;;;;;-0.12;33.75;98911.31;6400414;27;19923;-64
2021/12/08 07:36:07;;;;;;;;;;;;;;;0.62;32.92;98906.78;6400343;27;19923;-63
2021/12/08 07:39:12;;;;;;;;;;;;;;;1.34;30.94;98910.69;6400023;27;20429;-64
2021/12/08 07:42:24;;;;;;;;;;;;;;;2.01;32.47;98910.03;6400206;27;19945;-64
2021/12/08 07:45:45;;;;;;;;;;;;;;;2.67;32.00;98911.81;6399591;27;19930;-63
2021/12/08 07:48:57;;;;;;;;;;;;;;;3.11;31.97;98898.75;6400191;27;19923;-63
2021/12/08 07:52:05;;;;;;;;;;;;;;;3.43;31.25;98902.97;6399140;27;19923;-64
2021/12/08 07:55:09;;;;;;;;;;;;;;;3.41;30.63;98912.53;6399479;27;20015;-63
2021/12/08 07:58:15;;;;;;;;;;;;;;;2.82;31.05;98913.53;6399732;27;19929;-63
2021/12/08 08:01:22;;;;;;;;;;;;;;;1.92;31.71;98906.53;6399651;27;19923;-62
2021/12/08 08:04:25;;;;;;;;;;;;;;;1.40;33.11;98902.06;6399627;27;19974;-66
2021/12/08 08:07:28;;;;;;;;;;;;;;;1.44;33.38;98900.34;6399449;27;19923;-64
2021/12/08 08:10:32;;;;;;;;;;;;;;;1.61;33.11;98903.00;6398489;27;20017;-64
2021/12/08 08:13:34;;;;;;;;;;;;;;;2.09;30.00;98902.25;6398434;27;19945;-63
2021/12/08 08:16:38;;;;;;;;;;;;;;;2.68;28.68;98903.13;6398562;27;19961;-64
2021/12/08 08:19:45;;;;;;;;;;;;;;;3.18;30.75;98899.59;6399327;27;20388;-63
2021/12/08 08:22:52;;;;;;;;;;;;;;;2.87;31.02;98899.66;6399116;27;19923;-64
2021/12/08 08:25:53;;;;;;;;;;;;;;;2.39;31.06;98896.22;6398116;27;19927;-64
2021/12/08 08:28:54;;;;;;;;;;;;;;;2.23;26.30;98889.28;6397909;27;20331;-63
2021/12/08 08:32:07;;;;;;;;;;;;;;;1.72;31.77;98896.97;6398376;27;19923;-64
2021/12/08 08:35:08;;;;;;;;;;;;;;;0.61;30.50;98894.69;6398160;27;19930;-63
2021/12/08 08:38:13;;;;;;;;;;;;;;;0.21;34.31;98894.38;6398816;27;19926;-63
2021/12/08 08:41:20;;;;;;;;;;;;;;;-0.26;34.86;98887.00;6398429;27;19923;-63
2021/12/08 08:44:27;;;;;;;;;;;;;;;-0.08;34.86;98894.97;6398803;27;19935;-63
2021/12/08 08:47:30;;;;;;;;;;;;;;;0.42;34.11;98899.72;6398660;27;19926;-63
2021/12/08 08:50:37;;;;;;;;;;;;;;;0.73;33.22;98894.78;6397746;27;19923;-63
2021/12/08 08:53:39;;;;;;;;;;;;;;;0.56;28.94;98892.06;6398413;27;19926;-63
2021/12/08 08:56:48;;;;;;;;;;;;;;;0.32;33.61;98899.66;6397822;27;20013;-63
2021/12/08 08:59:54;;;;;;;;;;;;;;;0.01;33.76;98890.75;6397160;27;19946;-63
2021/12/08 09:03:03;;;;;;;;;;;;;;;-0.50;34.58;98888.50;6398278;27;19923;-64
2021/12/08 09:06:12;;;;;;;;;;;;;;;-1.51;35.32;98879.38;6398215;27;19923;-63
2021/12/08 09:09:19;;;;;;;;;;;;;;;-2.49;36.75;98895.75;6396654;27;19923;-64
2021/12/08 09:12:32;;;;;;;;;;;;;;;-2.96;37.57;98893.09;6397819;27;19947;-62
2021/12/08 09:15:36;;;;;;;;;;;;;;;-3.31;35.63;98897.44;6397824;27;19923;-64
2021/12/08 09:18:46;;;;;;;;;;;;;;;-4.25;36.25;98889.16;6396607;27;19923;-63
2021/12/08 09:21:58;;;;;;;;;;;;;;;-4.25;36.42;98890.03;6397005;27;19945;-63
2021/12/08 09:25:06;;;;;;;;;;;;;;;-4.24;35.94;98883.22;6397920;27;20281;-63
2021/12/08 09:28:11;;;;;;;;;;;;;;;-4.06;35.30;98888.81;6396560;27;19945;-63
2021/12/08 09:31:18;;;;;;;;;;;;;;;-4.36;35.60;98873.47;6397785;27;19923;-63
2021/12/08 09:34:32;;;;;;;;;;;;;;;-5.12;35.92;98885.03;6397745;27;19929;-63
2021/12/08 09:37:37;;;;;;;;;;;;;;;-6.23;37.35;98878.16;6397417;27;19923;-63
2021/12/08 09:40:44;;;;;;;;;;;;;;;-6.69;38.35;98877.47;6396500;27;19923;-64
2021/12/08 09:43:55;;;;;;;;;;;;;;;-7.17;39.52;98876.56;6397450;27;19923;-64
2021/12/08 09:46:57;;;;;;;;;;;;;;;-7.23;39.10;98880.63;6397111;27;20418;-63
2021/12/08 09:50:03;;;;;;;;;;;;;;;-7.64;39.65;98880.72;6396655;27;19923;-64
2021/12/08 09:53:06;;;;;;;;;;;;;;;-7.82;39.69;98871.53;6396795;27;19927;-64
2021/12/08 09:56:07;;;;;;;;;;;;;;;-8.30;40.09;98881.50;6395733;27;20122;-63
2021/12/08 09:59:11;;;;;;;;;;;;;;;-8.95;41.00;98882.16;6397176;27;19923;-64
2021/12/08 10:02:14;;;;;;;;;;;;;;;-9.43;41.76;98891.91;6397110;27;19930;-63
2021/12/08 10:05:16;;;;;;;;;;;;;;;-9.73;42.09;98892.25;6395745;27;19927;-63
2021/12/08 10:08:19;;;;;;;;;;;;;;;-9.77;42.13;98906.47;6396132;27;20395;-63
2021/12/08 10:11:20;;;;;;;;;;;;;;;-9.85;41.89;98910.38;6396414;27;19930;-64
2021/12/08 10:14:21;;;;;;;;;;;;;;;-10.20;42.44;98918.81;6396982;27;19931;-64
2021/12/08 10:17:22;;;;;;;;;;;;;;;-10.52;43.13;98905.41;6397225;27;19922;-64
2021/12/08 10:20:26;;;;;;;;;;;;;;;-10.59;43.25;98905.88;6396832;27;20404;-64
2021/12/08 10:23:35;;;;;;;;;;;;;;;-10.51;42.74;98894.41;6397010;27;19923;-64
2021/12/08 10:26:36;;;;;;;;;;;;;;;-10.29;42.60;98903.13;6396964;27;20304;-64
2021/12/08 10:29:37;;;;;;;;;;;;;;;-10.08;42.40;98900.72;6395772;27;19930;-63
2021/12/08 10:32:38;;;;;;;;;;;;;;;-10.00;42.59;98897.75;6395582;27;19923;-64
2021/12/08 10:35:43;;;;;;;;;;;;;;;-10.04;43.75;98895.84;6395531;27;19923;-63
2021/12/08 10:38:45;;;;;;;;;;;;;;;-10.12;42.74;98897.16;6395578;27;20379;-65
2021/12/08 10:42:04;;;;;;;;;;;;;;;-10.26;42.95;98893.94;6395826;27;20040;-64
2021/12/08 10:45:10;;;;;;;;;;;;;;;-10.27;43.16;98891.38;6396079;27;19929;-65
2021/12/08 10:48:26;;;;;;;;;;;;;;;-10.33;43.64;98894.47;6395535;27;20292;-65
2021/12/08 10:54:50;;;;;;;;;;;;;;;-10.83;45.17;98891.94;6396348;27;20340;-64
2021/12/08 10:57:54;;;;;;;;;;;;;;;-10.89;45.21;98893.34;6396423;27;19930;-63
2021/12/08 11:00:57;;;;;;;;;;;;;;;-10.85;45.45;98895.25;6396372;27;19923;-64
2021/12/08 11:04:06;;;;;;;;;;;;;;;-10.95;45.67;98892.19;6397292;27;19945;-64
2021/12/08 11:07:12;;;;;;;;;;;;;;;-11.01;46.10;98882.56;6399868;27;19931;-63
2021/12/08 11:10:18;;;;;;;;;;;;;;;-11.06;46.46;98881.44;6401046;27;19955;-65
2021/12/08 11:13:21;;;;;;;;;;;;;;;-11.16;46.85;98886.84;6400909;27;19923;-64
2021/12/08 11:16:42;;;;;;;;;;;;;;;-11.21;46.97;98883.16;6399961;27;20304;-63
2021/12/08 11:19:46;;;;;;;;;;;;;;;-11.35;47.53;98890.97;6399877;27;20017;-63
2021/12/08 11:22:59;;;;;;;;;;;;;;;-11.38;47.99;98884.81;6400631;27;20319;-63
2021/12/08 11:26:08;;;;;;;;;;;;;;;-11.46;48.19;98901.31;6400397;27;19972;-65
2021/12/08 11:29:20;;;;;;;;;;;;;;;-11.50;49.05;98905.38;6400468;27;19923;-65
2021/12/08 11:32:24;;;;;;;;;;;;;;;-11.62;49.56;98912.31;6399301;27;19927;-62
2021/12/08 11:35:25;;;;;;;;;;;;;;;-11.87;50.19;98908.47;6400274;27;19923;-64
2021/12/08 11:38:28;;;;;;;;;;;;;;;-11.96;50.69;98902.00;6400099;27;19923;-64
2021/12/08 11:41:35;;;;;;;;;;;;;;;-12.03;50.95;98898.25;6398885;27;20018;-63
2021/12/08 11:44:38;;;;;;;;;;;;;;;-12.00;50.97;98900.94;6399383;27;19923;-64
2021/12/08 11:47:43;;;;;;;;;;;;;;;-11.67;51.75;98911.19;6399445;27;20288;-63
2021/12/08 11:50:45;;;;;;;;;;;;;;;-12.02;51.94;98903.41;6398702;27;20007;-63
2021/12/08 11:53:48;;;;;;;;;;;;;;;-12.22;53.17;98909.91;6399497;27;19923;-63
2021/12/08 11:56:49;;;;;;;;;;;;;;;-12.18;53.27;98915.16;6398927;27;20316;-63
2021/12/08 12:00:00;;;;;;;;;;;;;;;-12.50;53.76;98911.66;6399563;27;20384;-63
2021/12/08 12:03:03;;;;;;;;;;;;;;;-12.40;53.85;98908.84;6399058;27;19930;-62
2021/12/08 12:06:07;;;;;;;;;;;;;;;-12.72;54.22;98905.31;6399376;27;19923;-64
2021/12/08 12:09:12;;;;;;;;;;;;;;;-12.76;55.09;98907.59;6399152;27;19918;-63
2021/12/08 12:12:14;;;;;;;;;;;;;;;-12.83;56.03;98896.22;6399186;27;19929;-65
2021/12/08 12:15:19;;;;;;;;;;;;;;;-12.91;56.53;98912.63;6398220;27;19919;-64
2021/12/08 12:18:23;;;;;;;;;;;;;;;-12.92;56.09;98900.75;6398913;27;19923;-64
2021/12/08 12:21:30;;;;;;;;;;;;;;;-12.90;56.84;98897.50;6398259;27;19923;-64
2021/12/08 12:24:32;;;;;;;;;;;;;;;-12.99;56.79;98888.47;6398416;27;19923;-64
2021/12/08 12:27:42;;;;;;;;;;;;;;;-13.03;57.45;98892.50;6397728;27;19930;-64
2021/12/08 12:30:51;;;;;;;;;;;;;;;-13.02;57.04;98893.38;6398868;27;20018;-64
2021/12/08 12:33:52;;;;;;;;;;;;;;;-12.94;57.11;98882.03;6398747;27;19923;-64
2021/12/08 12:36:54;;;;;;;;;;;;;;;-12.92;57.50;98876.28;6398528;27;19930;-63
2021/12/08 12:39:58;;;;;;;;;;;;;;;-12.89;57.28;98870.50;6397950;27;20203;-64
2021/12/08 12:42:59;;;;;;;;;;;;;;;-12.86;57.11;98860.53;6398538;27;19923;-65
2021/12/08 12:46:05;;;;;;;;;;;;;;;-12.77;57.45;98865.28;6397670;27;19934;-64
2021/12/08 12:49:22;;;;;;;;;;;;;;;-12.61;57.36;98873.00;6398347;27;19934;-64
2021/12/08 12:52:35;;;;;;;;;;;;;;;-12.56;58.10;98870.72;6397971;27;20011;-63
2021/12/08 12:55:44;;;;;;;;;;;;;;;-12.53;58.16;98870.91;6398264;27;19923;-64
2021/12/08 12:58:47;;;;;;;;;;;;;;;-12.43;58.88;98883.31;6397004;27;19923;-64
2021/12/08 13:02:04;;;;;;;;;;;;;;;-12.61;58.46;98883.13;6396894;27;19957;-64
2021/12/08 13:05:10;;;;;;;;;;;;;;;-12.47;58.54;98886.47;6398046;27;20304;-65
2021/12/08 13:08:27;;;;;;;;;;;;;;;-12.27;59.31;98891.00;6398292;27;19923;-63
2021/12/08 13:11:44;;;;;;;;;;;;;;;-12.29;59.72;98877.34;6397124;27;19923;-64
2021/12/08 13:15:05;;;;;;;;;;;;;;;-12.50;60.12;98878.69;6397993;27;19927;-64
2021/12/08 13:18:06;;;;;;;;;;;;;;;-12.49;60.48;98871.16;6397616;27;19923;-63
2021/12/08 13:21:10;;;;;;;;;;;;;;;-12.46;60.47;98868.78;6396735;27;19927;-64
2021/12/08 13:24:31;;;;;;;;;;;;;;;-12.43;60.67;98871.50;6396609;27;19923;-63
2021/12/08 13:27:47;;;;;;;;;;;;;;;-12.12;60.89;98872.34;6395628;27;19923;-65
2021/12/08 13:31:20;;;;;;;;;;;;;;;-12.02;61.27;98877.16;6378804;27;20400;-64
2021/12/08 13:34:24;;;;;;;;;;;;;;;-12.10;61.78;98886.00;6397482;27;19991;-64
2021/12/08 13:37:30;;;;;;;;;;;;;;;-12.06;62.15;98890.44;6397428;27;19927;-65
2021/12/08 13:40:41;;;;;;;;;;;;;;;-12.24;62.52;98885.22;6397014;27;20386;-64
2021/12/08 13:43:49;;;;;;;;;;;;;;;-12.53;62.17;98875.97;6397096;27;20289;-65
2021/12/08 13:46:54;;;;;;;;;;;;;;;-12.18;63.40;98880.50;6378943;27;19923;-64
2021/12/08 13:50:10;;;;;;;;;;;;;;;-12.22;63.18;98878.59;6396229;27;20380;-65
2021/12/08 13:53:19;;;;;;;;;;;;;;;-12.43;64.09;98885.84;6396876;27;20404;-64
2021/12/08 13:56:38;;;;;;;;;;;;;;;-12.43;64.33;98890.91;6395968;27;19922;-64
2021/12/08 14:00:12;;;;;;;;;;;;;;;-12.64;64.83;98892.22;6396537;27;19923;-65
2021/12/08 14:03:21;;;;;;;;;;;;;;;-12.79;65.24;98892.19;6342166;27;19934;-63
2021/12/08 14:06:27;;;;;;;;;;;;;;;-12.84;66.19;98886.88;6397117;27;19923;-64
2021/12/08 14:09:28;;;;;;;;;;;;;;;-12.79;66.01;98882.94;6396962;27;19919;-64
2021/12/08 14:12:40;;;;;;;;;;;;;;;-12.79;66.53;98882.94;6396709;27;19922;-63
2021/12/08 14:15:48;;;;;;;;;;;;;;;-12.92;66.13;98895.66;6396809;27;20332;-64
2021/12/08 14:18:49;;;;;;;;;;;;;;;-12.78;66.81;98889.75;6396348;27;19919;-65
2021/12/08 14:21:50;;;;;;;;;;;;;;;-12.62;66.77;98891.53;6396389;27;19995;-66
2021/12/08 14:24:57;;;;;;;;;;;;;;;-12.60;66.68;98895.00;6396234;27;19923;-64
2021/12/08 14:27:58;;;;;;;;;;;;;;;-12.64;66.29;98887.16;6396798;27;19960;-64
2021/12/08 14:31:01;;;;;;;;;;;;;;;-12.65;66.09;98891.34;6396892;27;19923;-64
2021/12/08 14:34:21;;;;;;;;;;;;;;;-12.67;66.01;98893.78;6378409;27;19999;-65
2021/12/08 14:37:23;;;;;;;;;;;;;;;-12.74;66.26;98901.81;6377962;27;20335;-64
2021/12/08 14:40:24;;;;;;;;;;;;;;;-12.68;66.60;98892.06;6399226;27;19926;-62
2021/12/08 14:43:36;;;;;;;;;;;;;;;-12.64;66.24;98888.03;6382820;27;19930;-63
2021/12/08 14:46:43;;;;;;;;;;;;;;;-12.48;66.21;98899.91;6383505;27;19923;-64
2021/12/08 14:49:55;;;;;;;;;;;;;;;-12.41;66.47;98902.03;6365232;27;19959;-64
2021/12/08 14:52:56;;;;;;;;;;;;;;;-12.28;66.34;98894.34;6399820;27;19941;-64
2021/12/08 14:56:09;;;;;;;;;;;;;;;-11.95;66.01;98899.53;6383342;27;19931;-64
2021/12/08 14:59:12;;;;;;;;;;;;;;;-11.95;66.43;98896.13;6400318;27;19923;-64
2021/12/08 15:02:20;;;;;;;;;;;;;;;-12.02;66.78;98902.53;6401101;27;19923;-63
2021/12/08 15:05:24;;;;;;;;;;;;;;;-11.98;66.58;98909.53;6400204;27;19927;-64
2021/12/08 15:08:26;;;;;;;;;;;;;;;-11.80;66.82;98914.75;6397703;27;20308;-63
2021/12/08 15:11:29;;;;;;;;;;;;;;;-12.01;67.71;98914.44;6382144;27;19923;-65
2021/12/08 15:14:37;;;;;;;;;;;;;;;-11.92;67.45;98902.25;6399904;27;19930;-64
2021/12/08 15:17:38;;;;;;;;;;;;;;;-11.72;67.69;98907.53;6399863;27;19923;-65
2021/12/08 15:20:44;;;;;;;;;;;;;;;-11.66;67.47;98905.31;6399691;27;19923;-66
2021/12/08 15:23:50;;;;;;;;;;;;;;;-11.71;67.90;98901.69;6400940;27;19923;-64
2021/12/08 15:26:54;;;;;;;;;;;;;;;-11.71;67.49;98915.25;6399813;27;19923;-64
2021/12/08 15:29:57;;;;;;;;;;;;;;;-11.49;68.04;98906.22;6400212;27;19923;-63
2021/12/08 15:33:02;;;;;;;;;;;;;;;-11.60;67.28;98892.97;6400351;27;19923;-63
2021/12/08 15:36:08;;;;;;;;;;;;;;;-11.56;68.21;98894.88;6399559;27;19923;-64
2021/12/08 15:39:20;;;;;;;;;;;;;;;-11.54;67.58;98889.09;6400040;27;19923;-64
2021/12/08 15:42:21;;;;;;;;;;;;;;;-11.49;68.07;98884.28;6399247;27;19927;-64
2021/12/08 15:45:25;;;;;;;;;;;;;;;-11.58;68.15;98876.13;6399931;27;19974;-65
2021/12/08 15:48:27;;;;;;;;;;;;;;;-11.70;68.21;98880.56;6399380;27;19923;-63
2021/12/08 15:51:36;;;;;;;;;;;;;;;-11.57;67.95;98875.34;6398209;27;20388;-65
2021/12/08 15:54:39;;;;;;;;;;;;;;;-11.57;68.21;98878.75;6398902;27;20311;-66
2021/12/08 15:57:42;;;;;;;;;;;;;;;-11.54;68.59;98872.97;6399616;27;19922;-64
2021/12/08 16:00:43;;;;;;;;;;;;;;;-11.65;68.38;98874.94;6399731;27;20331;-65
2021/12/08 16:03:56;;;;;;;;;;;;;;;-11.74;69.27;98873.56;6399482;27;20295;-65
2021/12/08 16:06:57;;;;;;;;;;;;;;;-11.72;68.83;98866.91;6398877;27;19923;-65
2021/12/08 16:10:01;;;;;;;;;;;;;;;-11.66;68.79;98872.31;6399665;27;19923;-65
2021/12/08 16:13:09;;;;;;;;;;;;;;;-11.64;68.50;98865.66;6399529;27;20315;-65
2021/12/08 16:16:13;;;;;;;;;;;;;;;-11.80;68.90;98864.81;6381319;27;19943;-66
2021/12/08 16:19:18;;;;;;;;;;;;;;;-11.68;69.43;98863.75;6398324;27;19929;-65
2021/12/08 16:22:22;;;;;;;;;;;;;;;-11.59;69.67;98874.41;6398274;27;19923;-65
2021/12/08 16:25:25;;;;;;;;;;;;;;;-11.48;70.34;98873.31;6399271;27;19923;-64
2021/12/08 16:28:27;;;;;;;;;;;;;;;-11.43;69.70;98871.03;6399149;27;20379;-65
2021/12/08 16:31:32;;;;;;;;;;;;;;;-11.28;70.36;98866.75;6399150;27;19923;-63
2021/12/08 16:34:34;;;;;;;;;;;;;;;-11.28;69.88;98865.88;6398196;27;19929;-64
2021/12/08 16:37:35;;;;;;;;;;;;;;;-11.25;70.13;98853.31;6399290;27;19923;-64